Terminal Aerodrome Forecast
Issued by NWS Lake Charles, LA

Home | Current Version | Previous Version | Text Only | Print | Product List | Glossary On
Versions: 1 2 3 4 5 6 7 8 9 10 11 12 13 14 15
588
FTUS44 KLCH 072340
TAFLCH
TAF
KLCH 072340Z 0800/0824 21006KT P6SM SKC
     FM080200 VRB03KT P6SM SKC
      TEMPO 0806/0810 4SM BR
     FM081200 33010G15KT P6SM SKC
     FM081500 33015G22KT P6SM SKC=

USA.gov is the U.S. government's official web portal to all federal, state and local government web resources and services.